sensor_id;sensor_type;location;lat;lon;timestamp;P1;durP1;ratioP1;P2;durP2;ratioP2
85908;SDS011;76449;52.542;4.680;2024-02-26T00:01:55;1.20;;;1.10;;
85908;SDS011;76449;52.542;4.680;2024-02-26T00:04:21;1.23;;;1.10;;
85908;SDS011;76449;52.542;4.680;2024-02-26T00:06:46;2.50;;;1.10;;
85908;SDS011;76449;52.542;4.680;2024-02-26T00:09:13;1.80;;;1.27;;
85908;SDS011;76449;52.542;4.680;2024-02-26T00:11:38;1.17;;;1.00;;
85908;SDS011;76449;52.542;4.680;2024-02-26T00:14:04;1.15;;;1.02;;
85908;SDS011;76449;52.542;4.680;2024-02-26T00:16:30;2.47;;;1.13;;
85908;SDS011;76449;52.542;4.680;2024-02-26T00:18:55;1.77;;;1.10;;
85908;SDS011;76449;52.542;4.680;2024-02-26T00:21:21;1.08;;;0.98;;
85908;SDS011;76449;52.542;4.680;2024-02-26T00:23:46;1.63;;;0.70;;
85908;SDS011;76449;52.542;4.680;2024-02-26T00:26:11;1.30;;;1.20;;
85908;SDS011;76449;52.542;4.680;2024-02-26T00:28:37;1.47;;;1.10;;
85908;SDS011;76449;52.542;4.680;2024-02-26T00:31:03;1.60;;;0.95;;
85908;SDS011;76449;52.542;4.680;2024-02-26T00:33:28;1.88;;;1.10;;
85908;SDS011;76449;52.542;4.680;2024-02-26T00:35:54;1.40;;;0.90;;
85908;SDS011;76449;52.542;4.680;2024-02-26T00:38:19;0.83;;;0.80;;
85908;SDS011;76449;52.542;4.680;2024-02-26T00:40:44;1.23;;;0.95;;
85908;SDS011;76449;52.542;4.680;2024-02-26T00:43:10;1.40;;;1.00;;
85908;SDS011;76449;52.542;4.680;2024-02-26T00:45:35;1.57;;;1.13;;
85908;SDS011;76449;52.542;4.680;2024-02-26T00:48:00;1.00;;;0.90;;
85908;SDS011;76449;52.542;4.680;2024-02-26T00:50:32;1.30;;;1.00;;
85908;SDS011;76449;52.542;4.680;2024-02-26T00:52:58;1.60;;;0.80;;
85908;SDS011;76449;52.542;4.680;2024-02-26T00:55:23;1.33;;;1.00;;
85908;SDS011;76449;52.542;4.680;2024-02-26T00:57:49;1.55;;;1.05;;
85908;SDS011;76449;52.542;4.680;2024-02-26T01:00:14;1.38;;;1.20;;
85908;SDS011;76449;52.542;4.680;2024-02-26T01:02:40;2.28;;;1.48;;
85908;SDS011;76449;52.542;4.680;2024-02-26T01:05:07;1.40;;;1.30;;
85908;SDS011;76449;52.542;4.680;2024-02-26T01:07:34;1.95;;;1.25;;
85908;SDS011;76449;52.542;4.680;2024-02-26T01:10:01;1.85;;;1.45;;
85908;SDS011;76449;52.542;4.680;2024-02-26T01:12:27;1.20;;;1.00;;
85908;SDS011;76449;52.542;4.680;2024-02-26T01:14:52;1.57;;;1.47;;
85908;SDS011;76449;52.542;4.680;2024-02-26T01:17:17;1.50;;;1.00;;
85908;SDS011;76449;52.542;4.680;2024-02-26T01:19:43;1.65;;;1.10;;
85908;SDS011;76449;52.542;4.680;2024-02-26T01:22:09;1.30;;;1.20;;
85908;SDS011;76449;52.542;4.680;2024-02-26T01:24:34;1.65;;;1.25;;
85908;SDS011;76449;52.542;4.680;2024-02-26T01:26:59;2.23;;;1.47;;
85908;SDS011;76449;52.542;4.680;2024-02-26T01:29:25;1.35;;;1.10;;
85908;SDS011;76449;52.542;4.680;2024-02-26T01:31:50;1.30;;;1.20;;
85908;SDS011;76449;52.542;4.680;2024-02-26T01:34:15;2.23;;;1.57;;
85908;SDS011;76449;52.542;4.680;2024-02-26T01:36:43;2.25;;;1.20;;
85908;SDS011;76449;52.542;4.680;2024-02-26T01:39:08;2.17;;;1.38;;
85908;SDS011;76449;52.542;4.680;2024-02-26T01:41:36;2.10;;;1.00;;
85908;SDS011;76449;52.542;4.680;2024-02-26T01:44:01;1.27;;;1.17;;
85908;SDS011;76449;52.542;4.680;2024-02-26T01:46:27;1.40;;;1.30;;
85908;SDS011;76449;52.542;4.680;2024-02-26T01:48:53;1.33;;;1.23;;
85908;SDS011;76449;52.542;4.680;2024-02-26T01:51:19;1.90;;;1.27;;
85908;SDS011;76449;52.542;4.680;2024-02-26T01:53:44;1.10;;;1.00;;
85908;SDS011;76449;52.542;4.680;2024-02-26T01:56:10;1.38;;;1.13;;
85908;SDS011;76449;52.542;4.680;2024-02-26T01:58:37;1.40;;;1.27;;
85908;SDS011;76449;52.542;4.680;2024-02-26T02:01:02;1.70;;;1.20;;
85908;SDS011;76449;52.542;4.680;2024-02-26T02:03:29;1.70;;;1.30;;
85908;SDS011;76449;52.542;4.680;2024-02-26T02:05:55;1.30;;;1.15;;
85908;SDS011;76449;52.542;4.680;2024-02-26T02:08:20;2.63;;;1.50;;
85908;SDS011;76449;52.542;4.680;2024-02-26T02:10:48;1.75;;;1.40;;
85908;SDS011;76449;52.542;4.680;2024-02-26T02:13:14;2.28;;;1.70;;
85908;SDS011;76449;52.542;4.680;2024-02-26T02:15:39;1.65;;;1.40;;
85908;SDS011;76449;52.542;4.680;2024-02-26T02:18:05;1.60;;;1.50;;
85908;SDS011;76449;52.542;4.680;2024-02-26T02:20:34;1.90;;;1.50;;
85908;SDS011;76449;52.542;4.680;2024-02-26T02:23:00;2.05;;;1.50;;
85908;SDS011;76449;52.542;4.680;2024-02-26T02:25:26;1.98;;;1.48;;
85908;SDS011;76449;52.542;4.680;2024-02-26T02:27:51;1.65;;;1.52;;
85908;SDS011;76449;52.542;4.680;2024-02-26T02:30:19;2.22;;;1.33;;
85908;SDS011;76449;52.542;4.680;2024-02-26T02:32:45;1.30;;;1.20;;
85908;SDS011;76449;52.542;4.680;2024-02-26T02:35:11;1.92;;;1.30;;
85908;SDS011;76449;52.542;4.680;2024-02-26T02:37:36;1.73;;;1.10;;
85908;SDS011;76449;52.542;4.680;2024-02-26T02:40:02;2.13;;;1.30;;
85908;SDS011;76449;52.542;4.680;2024-02-26T02:42:28;2.42;;;1.35;;
85908;SDS011;76449;52.542;4.680;2024-02-26T02:44:53;1.13;;;1.03;;
85908;SDS011;76449;52.542;4.680;2024-02-26T02:47:18;1.57;;;1.20;;
85908;SDS011;76449;52.542;4.680;2024-02-26T02:49:43;2.50;;;1.20;;
85908;SDS011;76449;52.542;4.680;2024-02-26T02:52:09;1.45;;;1.13;;
85908;SDS011;76449;52.542;4.680;2024-02-26T02:54:34;1.10;;;1.00;;
85908;SDS011;76449;52.542;4.680;2024-02-26T02:57:01;2.47;;;1.27;;
85908;SDS011;76449;52.542;4.680;2024-02-26T02:59:27;1.63;;;1.20;;
85908;SDS011;76449;52.542;4.680;2024-02-26T03:01:53;1.37;;;1.27;;
85908;SDS011;76449;52.542;4.680;2024-02-26T03:04:18;2.13;;;1.10;;
85908;SDS011;76449;52.542;4.680;2024-02-26T03:06:43;1.47;;;1.20;;
85908;SDS011;76449;52.542;4.680;2024-02-26T03:09:09;2.37;;;1.17;;
85908;SDS011;76449;52.542;4.680;2024-02-26T03:11:34;1.17;;;1.07;;
85908;SDS011;76449;52.542;4.680;2024-02-26T03:13:59;1.38;;;1.00;;
85908;SDS011;76449;52.542;4.680;2024-02-26T03:16:25;1.40;;;1.17;;
85908;SDS011;76449;52.542;4.680;2024-02-26T03:18:50;1.50;;;1.13;;
85908;SDS011;76449;52.542;4.680;2024-02-26T03:21:15;1.83;;;1.30;;
85908;SDS011;76449;52.542;4.680;2024-02-26T03:23:41;2.33;;;1.20;;
85908;SDS011;76449;52.542;4.680;2024-02-26T03:26:06;1.50;;;1.30;;
85908;SDS011;76449;52.542;4.680;2024-02-26T03:28:33;1.08;;;0.98;;
85908;SDS011;76449;52.542;4.680;2024-02-26T03:30:59;1.30;;;1.10;;
85908;SDS011;76449;52.542;4.680;2024-02-26T03:33:25;1.10;;;0.90;;
85908;SDS011;76449;52.542;4.680;2024-02-26T03:35:50;1.40;;;1.00;;
85908;SDS011;76449;52.542;4.680;2024-02-26T03:38:15;1.60;;;0.90;;
85908;SDS011;76449;52.542;4.680;2024-02-26T03:40:41;1.13;;;1.00;;
85908;SDS011;76449;52.542;4.680;2024-02-26T03:43:06;1.10;;;0.90;;
85908;SDS011;76449;52.542;4.680;2024-02-26T03:45:32;1.20;;;1.00;;
85908;SDS011;76449;52.542;4.680;2024-02-26T03:47:58;1.42;;;1.10;;
85908;SDS011;76449;52.542;4.680;2024-02-26T03:50:23;1.13;;;1.00;;
85908;SDS011;76449;52.542;4.680;2024-02-26T03:52:49;0.90;;;0.83;;
85908;SDS011;76449;52.542;4.680;2024-02-26T03:55:14;1.38;;;1.20;;
85908;SDS011;76449;52.542;4.680;2024-02-26T03:57:39;1.20;;;0.95;;
85908;SDS011;76449;52.542;4.680;2024-02-26T04:00:05;1.20;;;1.08;;
85908;SDS011;76449;52.542;4.680;2024-02-26T04:02:31;1.30;;;0.90;;
85908;SDS011;76449;52.542;4.680;2024-02-26T04:04:56;1.33;;;1.20;;
85908;SDS011;76449;52.542;4.680;2024-02-26T04:07:22;1.07;;;0.97;;
85908;SDS011;76449;52.542;4.680;2024-02-26T04:09:47;1.57;;;1.10;;
85908;SDS011;76449;52.542;4.680;2024-02-26T04:12:12;1.50;;;1.00;;
85908;SDS011;76449;52.542;4.680;2024-02-26T04:14:38;1.20;;;0.80;;
85908;SDS011;76449;52.542;4.680;2024-02-26T04:17:03;1.53;;;1.20;;
85908;SDS011;76449;52.542;4.680;2024-02-26T04:19:29;1.13;;;1.00;;
85908;SDS011;76449;52.542;4.680;2024-02-26T04:21:54;1.10;;;0.90;;
85908;SDS011;76449;52.542;4.680;2024-02-26T04:24:20;1.08;;;0.93;;
85908;SDS011;76449;52.542;4.680;2024-02-26T04:26:45;1.73;;;0.90;;
85908;SDS011;76449;52.542;4.680;2024-02-26T04:29:10;1.35;;;0.90;;
85908;SDS011;76449;52.542;4.680;2024-02-26T04:31:37;0.93;;;0.85;;
85908;SDS011;76449;52.542;4.680;2024-02-26T04:34:02;1.17;;;1.02;;
85908;SDS011;76449;52.542;4.680;2024-02-26T04:36:28;1.45;;;0.80;;
85908;SDS011;76449;52.542;4.680;2024-02-26T04:38:53;1.30;;;1.07;;
85908;SDS011;76449;52.542;4.680;2024-02-26T04:41:20;1.73;;;1.08;;
85908;SDS011;76449;52.542;4.680;2024-02-26T04:43:46;1.13;;;1.00;;
85908;SDS011;76449;52.542;4.680;2024-02-26T04:46:11;1.30;;;0.80;;
85908;SDS011;76449;52.542;4.680;2024-02-26T04:48:36;1.10;;;1.00;;
85908;SDS011;76449;52.542;4.680;2024-02-26T04:51:03;1.13;;;0.95;;
85908;SDS011;76449;52.542;4.680;2024-02-26T04:53:29;1.48;;;1.10;;
85908;SDS011;76449;52.542;4.680;2024-02-26T04:55:54;1.40;;;1.02;;
85908;SDS011;76449;52.542;4.680;2024-02-26T04:58:19;0.68;;;0.63;;
85908;SDS011;76449;52.542;4.680;2024-02-26T05:00:45;1.03;;;0.90;;
85908;SDS011;76449;52.542;4.680;2024-02-26T05:03:10;0.95;;;0.82;;
85908;SDS011;76449;52.542;4.680;2024-02-26T05:05:40;1.60;;;1.02;;
85908;SDS011;76449;52.542;4.680;2024-02-26T05:08:06;1.08;;;0.80;;
85908;SDS011;76449;52.542;4.680;2024-02-26T05:10:32;0.88;;;0.68;;
85908;SDS011;76449;52.542;4.680;2024-02-26T05:12:58;0.95;;;0.80;;
85908;SDS011;76449;52.542;4.680;2024-02-26T05:15:23;1.00;;;0.70;;
85908;SDS011;76449;52.542;4.680;2024-02-26T05:17:48;0.80;;;0.70;;
85908;SDS011;76449;52.542;4.680;2024-02-26T05:20:14;0.90;;;0.70;;
85908;SDS011;76449;52.542;4.680;2024-02-26T05:22:39;1.25;;;0.85;;
85908;SDS011;76449;52.542;4.680;2024-02-26T05:25:05;1.10;;;0.70;;
85908;SDS011;76449;52.542;4.680;2024-02-26T05:27:30;1.02;;;0.70;;
85908;SDS011;76449;52.542;4.680;2024-02-26T05:29:55;0.90;;;0.60;;
85908;SDS011;76449;52.542;4.680;2024-02-26T05:32:21;1.77;;;0.70;;
85908;SDS011;76449;52.542;4.680;2024-02-26T05:34:46;0.90;;;0.80;;
85908;SDS011;76449;52.542;4.680;2024-02-26T05:37:12;1.83;;;1.10;;
85908;SDS011;76449;52.542;4.680;2024-02-26T05:39:37;1.60;;;1.00;;
85908;SDS011;76449;52.542;4.680;2024-02-26T05:42:02;1.53;;;0.83;;
85908;SDS011;76449;52.542;4.680;2024-02-26T05:44:28;1.10;;;1.00;;
85908;SDS011;76449;52.542;4.680;2024-02-26T05:46:53;0.80;;;0.77;;
85908;SDS011;76449;52.542;4.680;2024-02-26T05:49:19;1.00;;;0.60;;
85908;SDS011;76449;52.542;4.680;2024-02-26T05:51:44;1.15;;;0.70;;
85908;SDS011;76449;52.542;4.680;2024-02-26T05:54:10;1.50;;;0.90;;
85908;SDS011;76449;52.542;4.680;2024-02-26T05:56:35;0.82;;;0.75;;
85908;SDS011;76449;52.542;4.680;2024-02-26T05:59:00;1.00;;;0.90;;
85908;SDS011;76449;52.542;4.680;2024-02-26T06:01:26;1.35;;;0.70;;
85908;SDS011;76449;52.542;4.680;2024-02-26T06:03:51;0.80;;;0.70;;
85908;SDS011;76449;52.542;4.680;2024-02-26T06:06:17;0.52;;;0.50;;
85908;SDS011;76449;52.542;4.680;2024-02-26T06:08:43;0.93;;;0.50;;
85908;SDS011;76449;52.542;4.680;2024-02-26T06:11:08;0.50;;;0.50;;
85908;SDS011;76449;52.542;4.680;2024-02-26T06:13:34;2.40;;;0.70;;
85908;SDS011;76449;52.542;4.680;2024-02-26T06:16:00;0.80;;;0.50;;
85908;SDS011;76449;52.542;4.680;2024-02-26T06:18:25;1.25;;;0.70;;
85908;SDS011;76449;52.542;4.680;2024-02-26T06:20:51;0.65;;;0.52;;
85908;SDS011;76449;52.542;4.680;2024-02-26T06:23:16;1.37;;;0.50;;
85908;SDS011;76449;52.542;4.680;2024-02-26T06:25:41;1.20;;;0.50;;
85908;SDS011;76449;52.542;4.680;2024-02-26T06:28:07;1.10;;;0.40;;
85908;SDS011;76449;52.542;4.680;2024-02-26T06:30:33;0.90;;;0.40;;
85908;SDS011;76449;52.542;4.680;2024-02-26T06:32:59;0.70;;;0.40;;
85908;SDS011;76449;52.542;4.680;2024-02-26T06:35:24;1.77;;;0.50;;
85908;SDS011;76449;52.542;4.680;2024-02-26T06:37:49;0.50;;;0.30;;
85908;SDS011;76449;52.542;4.680;2024-02-26T06:40:17;0.75;;;0.40;;
85908;SDS011;76449;52.542;4.680;2024-02-26T06:42:43;1.92;;;0.60;;
85908;SDS011;76449;52.542;4.680;2024-02-26T06:45:08;0.50;;;0.40;;
85908;SDS011;76449;52.542;4.680;2024-02-26T06:47:34;0.73;;;0.30;;
85908;SDS011;76449;52.542;4.680;2024-02-26T06:49:59;0.52;;;0.40;;
85908;SDS011;76449;52.542;4.680;2024-02-26T06:52:25;1.23;;;0.40;;
85908;SDS011;76449;52.542;4.680;2024-02-26T06:54:51;0.80;;;0.40;;
85908;SDS011;76449;52.542;4.680;2024-02-26T06:57:18;0.47;;;0.30;;
85908;SDS011;76449;52.542;4.680;2024-02-26T06:59:44;0.80;;;0.40;;
85908;SDS011;76449;52.542;4.680;2024-02-26T07:02:12;0.65;;;0.50;;
85908;SDS011;76449;52.542;4.680;2024-02-26T07:04:37;0.57;;;0.50;;
85908;SDS011;76449;52.542;4.680;2024-02-26T07:07:03;0.50;;;0.30;;
85908;SDS011;76449;52.542;4.680;2024-02-26T07:09:28;0.40;;;0.30;;
85908;SDS011;76449;52.542;4.680;2024-02-26T07:11:53;0.37;;;0.30;;
85908;SDS011;76449;52.542;4.680;2024-02-26T07:14:19;0.47;;;0.47;;
85908;SDS011;76449;52.542;4.680;2024-02-26T07:16:44;0.80;;;0.60;;
85908;SDS011;76449;52.542;4.680;2024-02-26T07:19:09;0.20;;;0.20;;
85908;SDS011;76449;52.542;4.680;2024-02-26T07:21:35;0.40;;;0.30;;
85908;SDS011;76449;52.542;4.680;2024-02-26T07:24:00;0.70;;;0.50;;
85908;SDS011;76449;52.542;4.680;2024-02-26T07:26:25;0.47;;;0.40;;
85908;SDS011;76449;52.542;4.680;2024-02-26T07:28:51;1.15;;;0.50;;
85908;SDS011;76449;52.542;4.680;2024-02-26T07:31:19;0.40;;;0.40;;
85908;SDS011;76449;52.542;4.680;2024-02-26T07:33:44;0.90;;;0.30;;
85908;SDS011;76449;52.542;4.680;2024-02-26T07:36:10;0.90;;;0.30;;
85908;SDS011;76449;52.542;4.680;2024-02-26T07:38:35;1.67;;;0.40;;
85908;SDS011;76449;52.542;4.680;2024-02-26T07:41:01;0.65;;;0.30;;
85908;SDS011;76449;52.542;4.680;2024-02-26T07:43:27;0.50;;;0.40;;
85908;SDS011;76449;52.542;4.680;2024-02-26T07:45:53;0.87;;;0.47;;
85908;SDS011;76449;52.542;4.680;2024-02-26T07:48:18;0.60;;;0.30;;
85908;SDS011;76449;52.542;4.680;2024-02-26T07:50:43;1.63;;;0.30;;
85908;SDS011;76449;52.542;4.680;2024-02-26T07:53:08;0.60;;;0.40;;
85908;SDS011;76449;52.542;4.680;2024-02-26T07:55:34;1.33;;;0.50;;
85908;SDS011;76449;52.542;4.680;2024-02-26T07:57:59;1.73;;;0.50;;
85908;SDS011;76449;52.542;4.680;2024-02-26T08:00:25;0.45;;;0.32;;
85908;SDS011;76449;52.542;4.680;2024-02-26T08:02:50;1.63;;;0.40;;
85908;SDS011;76449;52.542;4.680;2024-02-26T08:05:15;0.60;;;0.37;;
85908;SDS011;76449;52.542;4.680;2024-02-26T08:07:41;0.60;;;0.40;;
85908;SDS011;76449;52.542;4.680;2024-02-26T08:10:06;1.33;;;0.40;;
85908;SDS011;76449;52.542;4.680;2024-02-26T08:12:32;0.90;;;0.40;;
85908;SDS011;76449;52.542;4.680;2024-02-26T08:14:58;0.70;;;0.40;;
85908;SDS011;76449;52.542;4.680;2024-02-26T08:17:23;1.00;;;0.50;;
85908;SDS011;76449;52.542;4.680;2024-02-26T08:19:49;0.53;;;0.37;;
85908;SDS011;76449;52.542;4.680;2024-02-26T08:22:14;0.60;;;0.40;;
85908;SDS011;76449;52.542;4.680;2024-02-26T08:24:43;0.60;;;0.43;;
85908;SDS011;76449;52.542;4.680;2024-02-26T08:27:09;0.82;;;0.30;;
85908;SDS011;76449;52.542;4.680;2024-02-26T08:29:35;1.00;;;0.30;;
85908;SDS011;76449;52.542;4.680;2024-02-26T08:32:00;0.40;;;0.30;;
85908;SDS011;76449;52.542;4.680;2024-02-26T08:34:26;0.52;;;0.32;;
85908;SDS011;76449;52.542;4.680;2024-02-26T08:36:51;0.73;;;0.30;;
85908;SDS011;76449;52.542;4.680;2024-02-26T08:39:17;0.40;;;0.40;;
85908;SDS011;76449;52.542;4.680;2024-02-26T08:41:42;1.02;;;0.40;;
85908;SDS011;76449;52.542;4.680;2024-02-26T08:44:08;0.80;;;0.35;;
85908;SDS011;76449;52.542;4.680;2024-02-26T08:46:34;0.52;;;0.28;;
85908;SDS011;76449;52.542;4.680;2024-02-26T08:48:59;1.08;;;0.40;;
85908;SDS011;76449;52.542;4.680;2024-02-26T08:51:25;0.50;;;0.30;;
85908;SDS011;76449;52.542;4.680;2024-02-26T08:53:50;1.30;;;0.43;;
85908;SDS011;76449;52.542;4.680;2024-02-26T08:56:16;0.50;;;0.30;;
85908;SDS011;76449;52.542;4.680;2024-02-26T08:58:42;0.60;;;0.30;;
85908;SDS011;76449;52.542;4.680;2024-02-26T09:01:08;1.33;;;0.40;;
85908;SDS011;76449;52.542;4.680;2024-02-26T09:03:33;0.33;;;0.30;;
85908;SDS011;76449;52.542;4.680;2024-02-26T09:05:58;2.23;;;0.50;;
85908;SDS011;76449;52.542;4.680;2024-02-26T09:08:24;2.80;;;0.40;;
85908;SDS011;76449;52.542;4.680;2024-02-26T09:10:49;0.33;;;0.30;;
85908;SDS011;76449;52.542;4.680;2024-02-26T09:13:14;5.18;;;0.50;;
85908;SDS011;76449;52.542;4.680;2024-02-26T09:15:40;0.50;;;0.30;;
85908;SDS011;76449;52.542;4.680;2024-02-26T09:18:05;2.63;;;0.47;;
85908;SDS011;76449;52.542;4.680;2024-02-26T09:20:31;1.48;;;0.40;;
85908;SDS011;76449;52.542;4.680;2024-02-26T09:22:56;0.87;;;0.30;;
85908;SDS011;76449;52.542;4.680;2024-02-26T09:25:21;2.57;;;0.57;;
85908;SDS011;76449;52.542;4.680;2024-02-26T09:27:47;0.90;;;0.40;;
85908;SDS011;76449;52.542;4.680;2024-02-26T09:30:13;1.38;;;0.55;;
85908;SDS011;76449;52.542;4.680;2024-02-26T09:32:39;3.28;;;0.43;;
85908;SDS011;76449;52.542;4.680;2024-02-26T09:35:05;2.78;;;0.40;;
85908;SDS011;76449;52.542;4.680;2024-02-26T09:37:31;1.02;;;0.30;;
85908;SDS011;76449;52.542;4.680;2024-02-26T09:39:56;2.13;;;0.50;;
85908;SDS011;76449;52.542;4.680;2024-02-26T09:42:21;0.67;;;0.60;;
85908;SDS011;76449;52.542;4.680;2024-02-26T09:44:51;1.30;;;0.50;;
85908;SDS011;76449;52.542;4.680;2024-02-26T09:47:20;2.20;;;0.50;;
85908;SDS011;76449;52.542;4.680;2024-02-26T09:49:47;1.25;;;0.40;;
85908;SDS011;76449;52.542;4.680;2024-02-26T09:52:14;1.13;;;0.30;;
85908;SDS011;76449;52.542;4.680;2024-02-26T09:57:06;0.55;;;0.40;;
85908;SDS011;76449;52.542;4.680;2024-02-26T09:59:41;1.20;;;0.40;;
85908;SDS011;76449;52.542;4.680;2024-02-26T10:02:11;7.13;;;0.40;;
85908;SDS011;76449;52.542;4.680;2024-02-26T10:04:38;2.10;;;0.68;;
85908;SDS011;76449;52.542;4.680;2024-02-26T10:07:05;1.45;;;0.40;;
85908;SDS011;76449;52.542;4.680;2024-02-26T10:09:35;0.75;;;0.50;;
85908;SDS011;76449;52.542;4.680;2024-02-26T10:12:00;0.60;;;0.35;;
85908;SDS011;76449;52.542;4.680;2024-02-26T10:14:26;0.98;;;0.43;;
85908;SDS011;76449;52.542;4.680;2024-02-26T10:16:51;1.95;;;0.40;;
85908;SDS011;76449;52.542;4.680;2024-02-26T10:19:26;1.35;;;0.50;;
85908;SDS011;76449;52.542;4.680;2024-02-26T10:21:55;0.88;;;0.40;;
85908;SDS011;76449;52.542;4.680;2024-02-26T10:24:22;0.90;;;0.50;;
85908;SDS011;76449;52.542;4.680;2024-02-26T10:26:48;1.27;;;0.50;;
85908;SDS011;76449;52.542;4.680;2024-02-26T10:29:13;1.20;;;0.55;;
85908;SDS011;76449;52.542;4.680;2024-02-26T10:31:41;1.13;;;0.40;;
85908;SDS011;76449;52.542;4.680;2024-02-26T10:34:07;2.35;;;0.47;;
85908;SDS011;76449;52.542;4.680;2024-02-26T10:36:33;0.80;;;0.40;;
85908;SDS011;76449;52.542;4.680;2024-02-26T10:39:01;0.80;;;0.45;;
85908;SDS011;76449;52.542;4.680;2024-02-26T10:41:27;1.65;;;0.30;;
85908;SDS011;76449;52.542;4.680;2024-02-26T10:43:52;0.60;;;0.40;;
85908;SDS011;76449;52.542;4.680;2024-02-26T10:46:19;3.10;;;0.43;;
85908;SDS011;76449;52.542;4.680;2024-02-26T10:48:49;0.90;;;0.40;;
85908;SDS011;76449;52.542;4.680;2024-02-26T10:51:16;1.05;;;0.55;;
85908;SDS011;76449;52.542;4.680;2024-02-26T10:53:44;1.02;;;0.40;;
85908;SDS011;76449;52.542;4.680;2024-02-26T10:56:12;0.68;;;0.40;;
85908;SDS011;76449;52.542;4.680;2024-02-26T10:58:40;1.30;;;0.47;;
85908;SDS011;76449;52.542;4.680;2024-02-26T11:01:07;2.17;;;0.57;;
85908;SDS011;76449;52.542;4.680;2024-02-26T11:06:01;0.60;;;0.40;;
85908;SDS011;76449;52.542;4.680;2024-02-26T11:08:28;0.52;;;0.32;;
85908;SDS011;76449;52.542;4.680;2024-02-26T11:13:21;0.88;;;0.55;;
85908;SDS011;76449;52.542;4.680;2024-02-26T11:18:17;1.75;;;0.63;;
85908;SDS011;76449;52.542;4.680;2024-02-26T11:20:44;1.13;;;0.40;;
85908;SDS011;76449;52.542;4.680;2024-02-26T11:23:10;0.98;;;0.45;;
85908;SDS011;76449;52.542;4.680;2024-02-26T11:25:36;0.68;;;0.35;;
85908;SDS011;76449;52.542;4.680;2024-02-26T11:28:03;0.55;;;0.43;;
85908;SDS011;76449;52.542;4.680;2024-02-26T11:30:31;2.65;;;0.40;;
85908;SDS011;76449;52.542;4.680;2024-02-26T11:33:00;0.65;;;0.30;;
85908;SDS011;76449;52.542;4.680;2024-02-26T11:35:26;0.73;;;0.40;;
85908;SDS011;76449;52.542;4.680;2024-02-26T11:37:54;1.38;;;0.50;;
85908;SDS011;76449;52.542;4.680;2024-02-26T11:40:21;0.40;;;0.25;;
85908;SDS011;76449;52.542;4.680;2024-02-26T11:42:48;1.10;;;0.40;;
85908;SDS011;76449;52.542;4.680;2024-02-26T11:48:02;1.20;;;0.50;;
85908;SDS011;76449;52.542;4.680;2024-02-26T11:50:35;1.58;;;0.40;;
85908;SDS011;76449;52.542;4.680;2024-02-26T11:55:45;0.90;;;0.38;;
85908;SDS011;76449;52.542;4.680;2024-02-26T11:58:11;1.23;;;0.50;;
85908;SDS011;76449;52.542;4.680;2024-02-26T12:00:36;0.70;;;0.30;;
85908;SDS011;76449;52.542;4.680;2024-02-26T12:03:01;0.57;;;0.40;;
85908;SDS011;76449;52.542;4.680;2024-02-26T12:05:31;1.23;;;0.65;;
85908;SDS011;76449;52.542;4.680;2024-02-26T12:08:04;1.15;;;0.20;;
85908;SDS011;76449;52.542;4.680;2024-02-26T12:10:34;0.70;;;0.40;;
85908;SDS011;76449;52.542;4.680;2024-02-26T12:13:13;1.55;;;0.35;;
85908;SDS011;76449;52.542;4.680;2024-02-26T12:15:40;0.98;;;0.68;;
85908;SDS011;76449;52.542;4.680;2024-02-26T12:18:08;0.90;;;0.55;;
85908;SDS011;76449;52.542;4.680;2024-02-26T12:23:01;1.67;;;0.45;;
85908;SDS011;76449;52.542;4.680;2024-02-26T12:25:28;0.50;;;0.40;;
85908;SDS011;76449;52.542;4.680;2024-02-26T12:27:54;1.13;;;0.43;;
85908;SDS011;76449;52.542;4.680;2024-02-26T12:30:20;1.83;;;0.40;;
85908;SDS011;76449;52.542;4.680;2024-02-26T12:32:47;3.15;;;0.40;;
85908;SDS011;76449;52.542;4.680;2024-02-26T12:35:14;1.02;;;0.40;;
85908;SDS011;76449;52.542;4.680;2024-02-26T12:37:40;0.80;;;0.40;;
85908;SDS011;76449;52.542;4.680;2024-02-26T12:40:06;1.23;;;0.32;;
85908;SDS011;76449;52.542;4.680;2024-02-26T12:42:34;1.00;;;0.40;;
85908;SDS011;76449;52.542;4.680;2024-02-26T12:45:04;1.48;;;0.43;;
85908;SDS011;76449;52.542;4.680;2024-02-26T12:47:43;1.25;;;0.43;;
85908;SDS011;76449;52.542;4.680;2024-02-26T12:50:14;1.33;;;0.38;;
85908;SDS011;76449;52.542;4.680;2024-02-26T12:52:42;0.90;;;0.40;;
85908;SDS011;76449;52.542;4.680;2024-02-26T12:55:09;1.23;;;0.32;;
85908;SDS011;76449;52.542;4.680;2024-02-26T12:57:46;2.92;;;0.63;;
85908;SDS011;76449;52.542;4.680;2024-02-26T13:00:15;2.83;;;0.57;;
85908;SDS011;76449;52.542;4.680;2024-02-26T13:02:43;1.85;;;0.55;;
85908;SDS011;76449;52.542;4.680;2024-02-26T13:07:43;1.95;;;0.55;;
85908;SDS011;76449;52.542;4.680;2024-02-26T13:10:09;1.33;;;0.47;;
85908;SDS011;76449;52.542;4.680;2024-02-26T13:12:37;2.55;;;0.60;;
85908;SDS011;76449;52.542;4.680;2024-02-26T13:15:06;2.22;;;0.50;;
85908;SDS011;76449;52.542;4.680;2024-02-26T13:17:32;3.17;;;0.77;;
85908;SDS011;76449;52.542;4.680;2024-02-26T13:19:58;2.28;;;0.40;;
85908;SDS011;76449;52.542;4.680;2024-02-26T13:22:23;1.80;;;0.30;;
85908;SDS011;76449;52.542;4.680;2024-02-26T13:24:55;1.70;;;0.60;;
85908;SDS011;76449;52.542;4.680;2024-02-26T13:27:24;1.55;;;0.45;;
85908;SDS011;76449;52.542;4.680;2024-02-26T13:30:01;1.80;;;0.50;;
85908;SDS011;76449;52.542;4.680;2024-02-26T13:32:34;1.40;;;0.63;;
85908;SDS011;76449;52.542;4.680;2024-02-26T13:35:07;1.42;;;0.38;;
85908;SDS011;76449;52.542;4.680;2024-02-26T13:39:59;2.65;;;0.50;;
85908;SDS011;76449;52.542;4.680;2024-02-26T13:42:25;0.63;;;0.45;;
85908;SDS011;76449;52.542;4.680;2024-02-26T13:44:50;0.30;;;0.30;;
85908;SDS011;76449;52.542;4.680;2024-02-26T13:47:15;1.33;;;0.50;;
85908;SDS011;76449;52.542;4.680;2024-02-26T13:49:41;1.98;;;0.40;;
85908;SDS011;76449;52.542;4.680;2024-02-26T13:52:06;1.55;;;0.70;;
85908;SDS011;76449;52.542;4.680;2024-02-26T13:54:32;1.63;;;0.37;;
85908;SDS011;76449;52.542;4.680;2024-02-26T13:56:57;0.85;;;0.40;;
85908;SDS011;76449;52.542;4.680;2024-02-26T13:59:23;2.25;;;0.70;;
85908;SDS011;76449;52.542;4.680;2024-02-26T14:01:48;0.63;;;0.40;;
85908;SDS011;76449;52.542;4.680;2024-02-26T14:04:13;1.00;;;0.40;;
85908;SDS011;76449;52.542;4.680;2024-02-26T14:06:39;1.50;;;0.50;;
85908;SDS011;76449;52.542;4.680;2024-02-26T14:09:04;1.05;;;0.40;;
85908;SDS011;76449;52.542;4.680;2024-02-26T14:11:30;2.93;;;0.60;;
85908;SDS011;76449;52.542;4.680;2024-02-26T14:13:56;1.42;;;0.50;;
85908;SDS011;76449;52.542;4.680;2024-02-26T14:16:21;1.17;;;0.40;;
85908;SDS011;76449;52.542;4.680;2024-02-26T14:18:47;1.17;;;0.40;;
85908;SDS011;76449;52.542;4.680;2024-02-26T14:21:12;0.67;;;0.30;;
85908;SDS011;76449;52.542;4.680;2024-02-26T14:23:38;1.52;;;0.50;;
85908;SDS011;76449;52.542;4.680;2024-02-26T14:26:04;1.95;;;0.50;;
85908;SDS011;76449;52.542;4.680;2024-02-26T14:28:29;1.23;;;0.50;;
85908;SDS011;76449;52.542;4.680;2024-02-26T14:30:55;1.60;;;0.50;;
85908;SDS011;76449;52.542;4.680;2024-02-26T14:33:20;1.50;;;0.50;;
85908;SDS011;76449;52.542;4.680;2024-02-26T14:35:45;0.93;;;0.50;;
85908;SDS011;76449;52.542;4.680;2024-02-26T14:38:11;1.10;;;0.40;;
85908;SDS011;76449;52.542;4.680;2024-02-26T14:40:36;1.63;;;0.55;;
85908;SDS011;76449;52.542;4.680;2024-02-26T14:43:02;0.60;;;0.27;;
85908;SDS011;76449;52.542;4.680;2024-02-26T14:45:29;1.30;;;0.60;;
85908;SDS011;76449;52.542;4.680;2024-02-26T14:47:54;1.27;;;0.40;;
85908;SDS011;76449;52.542;4.680;2024-02-26T14:50:19;1.40;;;0.60;;
85908;SDS011;76449;52.542;4.680;2024-02-26T14:52:45;2.20;;;0.50;;
85908;SDS011;76449;52.542;4.680;2024-02-26T14:55:10;0.77;;;0.40;;
85908;SDS011;76449;52.542;4.680;2024-02-26T14:57:35;0.80;;;0.40;;
85908;SDS011;76449;52.542;4.680;2024-02-26T15:00:01;1.70;;;0.43;;
85908;SDS011;76449;52.542;4.680;2024-02-26T15:02:27;1.88;;;0.50;;
85908;SDS011;76449;52.542;4.680;2024-02-26T15:04:53;0.65;;;0.32;;